Time;durP1;ratioP1;P1;durP2;ratioP2;P2;SDS_P1;SDS_P2;PMS_P1;PMS_P2;Temp;Humidity;BMP_temperature;BMP_pressure;BME280_temperature;BME280_humidity;BME280_pressure;Samples;Min_cycle;Max_cycle;Signal;HPM_P1;HPM_P2
2022/07/16 00:02:17;;;;;;;4.82;1.33;;;17.50;99.90;;;;;;5027468;28;20033;-68
2022/07/16 00:04:42;;;;;;;1.73;0.70;;;17.40;99.90;;;;;;5030279;28;20041;-69
2022/07/16 00:07:08;;;;;;;4.10;0.93;;;17.40;99.90;;;;;;5029232;28;20447;-66
2022/07/16 00:09:34;;;;;;;2.67;0.88;;;17.30;99.90;;;;;;5030010;28;20052;-69
2022/07/16 00:11:59;;;;;;;2.05;0.73;;;17.20;99.90;;;;;;5030865;28;20029;-67
2022/07/16 00:14:25;;;;;;;2.15;0.80;;;17.20;99.90;;;;;;5028899;28;20068;-70
2022/07/16 00:16:50;;;;;;;3.63;0.80;;;17.10;99.90;;;;;;5030529;28;20536;-70
2022/07/16 00:19:16;;;;;;;4.00;0.95;;;17.00;99.90;;;;;;5030244;28;20053;-70
2022/07/16 00:21:43;;;;;;;2.00;1.00;;;17.00;99.90;;;;;;5029924;28;20589;-70
2022/07/16 00:24:09;;;;;;;2.70;0.90;;;16.90;99.90;;;;;;5030464;28;20041;-70
2022/07/16 00:26:35;;;;;;;5.07;0.88;;;17.00;99.90;;;;;;5031223;28;20060;-69
2022/07/16 00:29:01;;;;;;;2.80;1.08;;;17.00;99.90;;;;;;5030429;28;20064;-68
2022/07/16 00:31:26;;;;;;;3.58;1.08;;;17.00;99.90;;;;;;5029296;28;20095;-68
2022/07/16 00:33:52;;;;;;;1.58;0.73;;;17.00;99.90;;;;;;5030301;28;20033;-66
2022/07/16 00:36:17;;;;;;;1.70;1.02;;;17.00;99.90;;;;;;5028133;28;20061;-69
2022/07/16 00:38:43;;;;;;;2.67;1.10;;;17.00;99.90;;;;;;5030102;28;20029;-68
2022/07/16 00:41:16;;;;;;;3.05;1.15;;;17.10;99.90;;;;;;5030351;28;20116;-65
2022/07/16 00:43:49;;;;;;;3.13;1.20;;;17.10;99.90;;;;;;5028577;28;20410;-69
2022/07/16 00:46:15;;;;;;;4.82;0.90;;;17.10;99.90;;;;;;5028531;28;20041;-66
2022/07/16 00:48:42;;;;;;;2.13;0.77;;;17.10;99.90;;;;;;5028109;28;20375;-69
2022/07/16 00:51:08;;;;;;;1.98;0.95;;;17.00;99.90;;;;;;5027016;28;20026;-66
2022/07/16 00:53:35;;;;;;;4.90;1.33;;;17.00;99.90;;;;;;5028924;28;20523;-68
2022/07/16 00:56:02;;;;;;;1.52;0.80;;;16.90;99.90;;;;;;5030218;28;20029;-68
2022/07/16 00:58:28;;;;;;;3.25;1.13;;;16.80;99.90;;;;;;5025149;28;20405;-68
2022/07/16 01:00:53;;;;;;;2.33;0.90;;;16.70;99.90;;;;;;5029678;28;20124;-65
2022/07/16 01:03:19;;;;;;;3.42;1.30;;;16.70;99.90;;;;;;5028018;28;20121;-71
2022/07/16 01:05:45;;;;;;;2.05;0.80;;;16.60;99.90;;;;;;5029772;28;20029;-69
2022/07/16 01:08:11;;;;;;;3.05;1.40;;;16.50;99.90;;;;;;5029749;28;20026;-70
2022/07/16 01:10:38;;;;;;;2.60;1.20;;;16.50;99.90;;;;;;5029208;28;20040;-66
2022/07/16 01:13:04;;;;;;;2.40;1.17;;;16.40;99.90;;;;;;5027590;28;20045;-68
2022/07/16 01:15:30;;;;;;;5.82;0.90;;;16.40;99.90;;;;;;5029149;28;20048;-69
2022/07/16 01:17:55;;;;;;;4.13;1.08;;;16.40;99.90;;;;;;5028720;28;20060;-68
2022/07/16 01:20:21;;;;;;;3.55;1.25;;;16.40;99.90;;;;;;5028692;28;20030;-65
2022/07/16 01:22:47;;;;;;;4.00;1.00;;;16.40;99.90;;;;;;5029841;28;20029;-68
2022/07/16 01:25:12;;;;;;;2.40;1.13;;;16.40;99.90;;;;;;5032162;28;20025;-69
2022/07/16 01:27:38;;;;;;;5.40;0.75;;;16.30;99.90;;;;;;5028656;28;20501;-66
2022/07/16 01:30:08;;;;;;;4.28;1.88;;;16.30;99.90;;;;;;5029435;28;20049;-66
2022/07/16 01:32:34;;;;;;;3.60;1.23;;;16.30;99.90;;;;;;5026573;28;20033;-66
2022/07/16 01:34:59;;;;;;;6.35;1.52;;;16.20;99.90;;;;;;5029261;28;20276;-68
2022/07/16 01:37:25;;;;;;;5.85;1.10;;;16.20;99.90;;;;;;5028428;28;20044;-68
2022/07/16 01:39:51;;;;;;;3.95;1.33;;;16.10;99.90;;;;;;5029362;28;20045;-67
2022/07/16 01:42:16;;;;;;;4.68;1.33;;;16.10;99.90;;;;;;5028774;28;20068;-68
2022/07/16 01:44:42;;;;;;;6.22;1.50;;;16.10;99.90;;;;;;5028652;28;20124;-69
2022/07/16 01:47:08;;;;;;;4.80;1.30;;;16.00;99.90;;;;;;5029274;28;20038;-68
2022/07/16 01:49:36;;;;;;;6.00;1.10;;;16.00;99.90;;;;;;5028389;28;20033;-68
2022/07/16 01:52:12;;;;;;;3.40;1.23;;;16.00;99.90;;;;;;5027563;28;20065;-69
2022/07/16 01:54:43;;;;;;;1.67;1.00;;;16.00;99.90;;;;;;5026951;28;20494;-69
2022/07/16 01:57:09;;;;;;;2.65;1.38;;;15.90;99.90;;;;;;5027562;28;20025;-67
2022/07/16 01:59:34;;;;;;;2.35;1.25;;;15.90;99.90;;;;;;5024263;28;20383;-67
2022/07/16 02:02:00;;;;;;;7.90;1.50;;;15.90;99.90;;;;;;5029218;28;20036;-68
2022/07/16 02:04:26;;;;;;;4.45;1.25;;;15.90;99.90;;;;;;5028032;28;20045;-69
2022/07/16 02:06:51;;;;;;;2.47;1.27;;;15.80;99.90;;;;;;5029205;28;20037;-70
2022/07/16 02:09:17;;;;;;;1.70;1.20;;;15.80;99.90;;;;;;5028690;28;20026;-70
2022/07/16 02:11:42;;;;;;;2.08;1.23;;;15.80;99.90;;;;;;5028303;28;20040;-70
2022/07/16 02:14:08;;;;;;;2.88;1.45;;;15.70;99.90;;;;;;5028546;28;20108;-70
2022/07/16 02:16:33;;;;;;;3.72;1.75;;;15.70;99.90;;;;;;5026396;28;20390;-70
2022/07/16 02:18:59;;;;;;;4.05;1.48;;;15.80;99.90;;;;;;5029039;28;20150;-71
2022/07/16 02:21:25;;;;;;;2.53;1.25;;;15.80;99.90;;;;;;5027920;28;20033;-70
2022/07/16 02:23:50;;;;;;;2.25;1.27;;;15.80;99.90;;;;;;5025211;28;20063;-71
2022/07/16 02:26:16;;;;;;;3.30;1.50;;;15.90;99.90;;;;;;5032380;28;20061;-71
2022/07/16 02:28:41;;;;;;;3.72;1.63;;;15.90;99.90;;;;;;5032121;28;20401;-69
2022/07/16 02:31:07;;;;;;;5.35;2.00;;;15.90;99.90;;;;;;5032657;28;20056;-68
2022/07/16 02:33:32;;;;;;;3.58;1.75;;;16.00;99.90;;;;;;5031597;28;20421;-70
2022/07/16 02:35:58;;;;;;;6.53;1.90;;;16.00;99.90;;;;;;5032291;28;20049;-70
2022/07/16 02:38:24;;;;;;;4.82;1.80;;;16.00;99.90;;;;;;5031439;28;20040;-70
2022/07/16 02:40:50;;;;;;;4.57;1.75;;;16.00;99.90;;;;;;5028382;28;20053;-70
2022/07/16 02:43:15;;;;;;;4.97;1.75;;;16.00;99.90;;;;;;5030017;28;20112;-70
2022/07/16 02:45:42;;;;;;;4.13;1.95;;;16.00;99.90;;;;;;5029637;28;20021;-68
2022/07/16 02:48:10;;;;;;;4.43;2.28;;;16.10;99.90;;;;;;5032013;28;20033;-67
2022/07/16 02:50:36;;;;;;;3.65;1.70;;;16.10;99.90;;;;;;5032997;28;20025;-68
2022/07/16 02:53:02;;;;;;;5.18;1.75;;;16.10;99.90;;;;;;5031724;28;20045;-71
2022/07/16 02:55:28;;;;;;;7.38;1.88;;;16.10;99.90;;;;;;5031415;28;20034;-68
2022/07/16 02:57:54;;;;;;;3.80;1.55;;;16.00;99.90;;;;;;5032212;28;20042;-69
2022/07/16 03:00:19;;;;;;;4.80;1.80;;;16.10;99.90;;;;;;5030953;28;20029;-69
2022/07/16 03:02:45;;;;;;;3.15;1.70;;;16.00;99.90;;;;;;5029915;28;20037;-70
2022/07/16 03:05:11;;;;;;;8.40;1.98;;;16.00;99.90;;;;;;5031878;28;20494;-69
2022/07/16 03:07:37;;;;;;;7.18;1.50;;;16.00;99.90;;;;;;5030457;28;20107;-71
2022/07/16 03:10:05;;;;;;;5.20;2.13;;;16.00;99.90;;;;;;5030574;28;20394;-68
2022/07/16 03:12:31;;;;;;;3.65;1.92;;;16.00;99.90;;;;;;5029350;28;20105;-71
2022/07/16 03:14:57;;;;;;;13.98;2.70;;;16.00;99.90;;;;;;5031985;28;20128;-70
2022/07/16 03:17:23;;;;;;;5.13;1.90;;;16.00;99.90;;;;;;5030743;28;20091;-70
2022/07/16 03:19:48;;;;;;;2.97;1.40;;;16.00;99.90;;;;;;5030358;28;20037;-71
2022/07/16 03:22:14;;;;;;;4.75;1.50;;;16.00;99.90;;;;;;5030087;28;20448;-72
2022/07/16 03:24:40;;;;;;;3.83;1.35;;;16.00;99.90;;;;;;5030378;28;20497;-70
2022/07/16 03:27:05;;;;;;;4.43;1.27;;;16.10;99.90;;;;;;5033427;28;20156;-70
2022/07/16 03:29:31;;;;;;;6.32;2.20;;;16.10;99.90;;;;;;5030424;28;20064;-71
2022/07/16 03:31:56;;;;;;;4.75;1.08;;;16.10;99.90;;;;;;5031601;28;20048;-70
2022/07/16 03:34:23;;;;;;;2.72;1.33;;;16.20;99.90;;;;;;5030071;28;20254;-71
2022/07/16 03:36:49;;;;;;;5.43;1.23;;;16.20;99.90;;;;;;5028069;28;20138;-70
2022/07/16 03:39:14;;;;;;;4.53;1.25;;;16.20;99.90;;;;;;5034627;28;20033;-70
2022/07/16 03:41:40;;;;;;;4.40;1.40;;;16.30;99.90;;;;;;5033920;28;20122;-68
2022/07/16 03:44:08;;;;;;;6.22;1.13;;;16.30;99.90;;;;;;5029598;28;20041;-71
2022/07/16 03:46:35;;;;;;;4.25;1.08;;;16.30;99.90;;;;;;5028145;28;20033;-70
2022/07/16 03:49:01;;;;;;;5.40;1.77;;;16.30;99.90;;;;;;5031222;28;20041;-72
2022/07/16 03:51:28;;;;;;;5.05;1.10;;;16.40;99.90;;;;;;5030464;28;20057;-68
2022/07/16 03:53:54;;;;;;;1.65;1.13;;;16.40;99.90;;;;;;5031697;28;20037;-71
2022/07/16 03:56:19;;;;;;;1.90;0.70;;;16.40;99.90;;;;;;5030206;28;20107;-69
2022/07/16 03:58:45;;;;;;;5.10;1.52;;;16.50;99.90;;;;;;5027166;28;20410;-71
2022/07/16 04:01:11;;;;;;;5.97;1.40;;;16.50;99.90;;;;;;5031255;28;20033;-66
2022/07/16 04:03:37;;;;;;;4.72;1.00;;;16.60;99.90;;;;;;5028882;28;20053;-69
2022/07/16 04:06:03;;;;;;;4.03;0.95;;;16.50;99.90;;;;;;5030038;28;20044;-69
2022/07/16 04:08:29;;;;;;;4.18;1.33;;;16.50;99.90;;;;;;5028855;28;20417;-68
2022/07/16 04:10:55;;;;;;;5.55;1.10;;;16.50;99.90;;;;;;5030651;28;20120;-68
2022/07/16 04:13:21;;;;;;;5.53;1.02;;;16.50;99.90;;;;;;5028152;28;20121;-69
2022/07/16 04:15:46;;;;;;;2.92;1.60;;;16.60;99.90;;;;;;5031022;28;20478;-68
2022/07/16 04:18:12;;;;;;;2.30;0.80;;;16.60;99.90;;;;;;5030966;28;20026;-65
2022/07/16 04:20:38;;;;;;;6.10;1.10;;;16.60;99.90;;;;;;5029548;28;20040;-67
2022/07/16 04:23:03;;;;;;;5.70;1.50;;;16.60;99.90;;;;;;5030375;28;20501;-70
2022/07/16 04:25:29;;;;;;;1.70;0.60;;;16.60;99.90;;;;;;5030792;28;20383;-70
2022/07/16 04:27:55;;;;;;;2.15;1.05;;;16.60;99.90;;;;;;5030450;28;20037;-70
2022/07/16 04:30:21;;;;;;;3.75;0.90;;;16.60;99.90;;;;;;5029541;28;20450;-67
2022/07/16 04:32:46;;;;;;;4.93;1.05;;;16.60;99.90;;;;;;5030175;28;20556;-70
2022/07/16 04:35:13;;;;;;;3.10;0.90;;;16.60;99.90;;;;;;5028922;28;20159;-67
2022/07/16 04:37:40;;;;;;;1.73;0.50;;;16.60;99.90;;;;;;5029161;28;20053;-70
2022/07/16 04:40:07;;;;;;;2.47;0.68;;;16.50;99.90;;;;;;5027849;28;20037;-68
2022/07/16 04:42:33;;;;;;;3.35;0.52;;;16.50;99.90;;;;;;5028818;28;20060;-72
2022/07/16 04:44:59;;;;;;;2.75;0.93;;;16.50;99.90;;;;;;5028335;28;20497;-70
2022/07/16 04:47:25;;;;;;;5.22;0.68;;;16.40;99.90;;;;;;5029567;28;20121;-71
2022/07/16 04:49:50;;;;;;;2.67;0.63;;;16.40;99.90;;;;;;5027935;28;20121;-70
2022/07/16 04:52:16;;;;;;;2.78;0.40;;;16.40;99.90;;;;;;5027958;28;20401;-71
2022/07/16 04:54:41;;;;;;;6.50;0.47;;;16.40;99.90;;;;;;5029401;28;20491;-69
2022/07/16 04:57:07;;;;;;;1.02;0.40;;;16.40;99.90;;;;;;5028573;28;20505;-71
2022/07/16 04:59:32;;;;;;;2.15;0.55;;;16.40;99.90;;;;;;5028842;28;20042;-68
2022/07/16 05:02:56;;;;;;;2.15;1.02;;;16.40;99.90;;;;;;5030148;28;20078;-69
2022/07/16 05:04:44;;;;;;;2.28;0.30;;;16.40;99.90;;;;;;5025405;28;20127;-68
2022/07/16 05:07:09;;;;;;;4.38;0.50;;;16.50;99.90;;;;;;5029989;28;20152;-70
2022/07/16 05:09:35;;;;;;;2.78;0.68;;;16.50;99.90;;;;;;5027614;28;20127;-70
2022/07/16 05:12:00;;;;;;;0.50;0.17;;;16.50;99.90;;;;;;5029686;28;20042;-68
2022/07/16 05:14:26;;;;;;;0.85;0.32;;;16.50;99.90;;;;;;5027365;28;20037;-71
2022/07/16 05:16:52;;;;;;;5.70;0.30;;;16.50;99.90;;;;;;5027641;28;20040;-70
2022/07/16 05:19:17;;;;;;;1.85;0.47;;;16.60;99.90;;;;;;5029004;28;20037;-70
2022/07/16 05:21:43;;;;;;;1.80;0.30;;;16.50;99.90;;;;;;5029219;28;20087;-67
2022/07/16 05:24:08;;;;;;;2.30;0.35;;;16.60;99.90;;;;;;5029341;28;20120;-70
2022/07/16 05:26:34;;;;;;;3.60;0.50;;;16.60;99.90;;;;;;5028989;28;20091;-70
2022/07/16 05:28:59;;;;;;;1.77;0.60;;;16.60;99.90;;;;;;5029610;28;20156;-70
2022/07/16 05:31:25;;;;;;;8.23;0.85;;;16.70;99.90;;;;;;5028491;28;20045;-71
2022/07/16 05:33:50;;;;;;;2.53;0.70;;;16.70;99.90;;;;;;5029194;28;20045;-71
2022/07/16 05:36:18;;;;;;;2.35;0.88;;;16.70;99.90;;;;;;5029087;28;20029;-70
2022/07/16 05:38:44;;;;;;;1.65;0.40;;;16.70;99.90;;;;;;5029050;28;20037;-68
2022/07/16 05:41:09;;;;;;;0.75;0.30;;;16.80;99.90;;;;;;5029532;28;20033;-69
2022/07/16 05:43:35;;;;;;;3.67;0.60;;;16.80;99.90;;;;;;5028213;28;20029;-72
2022/07/16 05:46:00;;;;;;;1.40;0.40;;;16.90;99.90;;;;;;5031215;28;20044;-70
2022/07/16 05:48:26;;;;;;;4.35;0.55;;;16.90;99.90;;;;;;5028225;28;20030;-70
2022/07/16 05:50:51;;;;;;;3.33;0.50;;;17.00;99.90;;;;;;5028916;28;20042;-67
2022/07/16 05:53:17;;;;;;;2.25;0.35;;;17.20;99.90;;;;;;5028473;28;20033;-69
2022/07/16 05:55:43;;;;;;;3.75;0.43;;;17.40;99.90;;;;;;5028483;28;20079;-70
2022/07/16 05:58:08;;;;;;;8.07;1.70;;;17.50;99.90;;;;;;5024845;28;20408;-70
2022/07/16 06:00:34;;;;;;;2.50;0.35;;;17.80;99.90;;;;;;5027393;28;20037;-70
2022/07/16 06:02:59;;;;;;;3.17;0.60;;;17.90;99.90;;;;;;5028460;28;20041;-70
2022/07/16 06:05:26;;;;;;;2.22;0.40;;;18.00;99.90;;;;;;5027622;28;20026;-70
2022/07/16 06:07:52;;;;;;;2.25;0.77;;;18.00;99.90;;;;;;5028614;28;20030;-71
2022/07/16 06:10:18;;;;;;;1.73;0.40;;;18.00;99.90;;;;;;5028320;28;20053;-70
2022/07/16 06:12:44;;;;;;;3.00;0.73;;;18.10;99.90;;;;;;5025795;28;20148;-69
2022/07/16 06:15:11;;;;;;;2.08;0.50;;;18.20;99.90;;;;;;5027923;28;20032;-71
2022/07/16 06:17:37;;;;;;;2.95;0.40;;;18.30;99.90;;;;;;5027290;28;20041;-69
2022/07/16 06:20:04;;;;;;;2.72;0.57;;;18.50;99.90;;;;;;5027916;28;20029;-67
2022/07/16 06:22:30;;;;;;;3.92;0.60;;;18.80;99.90;;;;;;5025020;28;20049;-67
2022/07/16 06:24:55;;;;;;;1.70;0.45;;;18.90;99.90;;;;;;5027953;28;20041;-71
2022/07/16 06:27:21;;;;;;;2.58;0.50;;;19.00;99.90;;;;;;5026988;28;20053;-68
2022/07/16 06:29:46;;;;;;;3.58;0.50;;;19.10;99.90;;;;;;5027555;28;20083;-70
2022/07/16 06:32:12;;;;;;;2.45;0.40;;;19.10;99.90;;;;;;5026187;28;20045;-71
2022/07/16 06:34:38;;;;;;;3.45;0.50;;;19.10;99.90;;;;;;5026860;28;20498;-70
2022/07/16 06:37:03;;;;;;;2.25;0.40;;;19.20;99.90;;;;;;5027714;28;20038;-70
2022/07/16 06:39:29;;;;;;;2.60;0.32;;;19.10;99.90;;;;;;5026553;28;20504;-69
2022/07/16 06:41:55;;;;;;;0.95;0.20;;;19.00;99.90;;;;;;5026009;28;20044;-70
2022/07/16 06:44:20;;;;;;;2.75;0.30;;;19.00;99.90;;;;;;5026475;28;20040;-70
2022/07/16 06:46:46;;;;;;;1.45;0.20;;;19.20;99.90;;;;;;5029628;28;20037;-68
2022/07/16 06:49:11;;;;;;;4.10;0.45;;;19.10;99.90;;;;;;5027780;28;20041;-71
2022/07/16 06:51:37;;;;;;;2.92;0.20;;;19.20;99.90;;;;;;5026905;28;20048;-71
2022/07/16 06:54:02;;;;;;;3.22;0.30;;;19.30;99.90;;;;;;5027765;28;20394;-68
2022/07/16 06:56:28;;;;;;;1.63;0.30;;;19.40;99.90;;;;;;5026578;28;20414;-71
2022/07/16 06:58:53;;;;;;;1.25;0.20;;;19.40;99.60;;;;;;5027750;28;20045;-70
2022/07/16 07:01:19;;;;;;;3.35;0.20;;;19.70;99.30;;;;;;5023393;28;20033;-68
2022/07/16 07:03:45;;;;;;;3.05;0.20;;;19.80;99.00;;;;;;5022764;28;20494;-69
2022/07/16 07:06:10;;;;;;;1.60;0.40;;;20.00;98.50;;;;;;5025832;28;20461;-70
2022/07/16 07:08:36;;;;;;;2.47;0.57;;;20.30;97.90;;;;;;5025243;28;20041;-70
2022/07/16 07:11:02;;;;;;;1.58;0.30;;;20.60;97.20;;;;;;5026853;28;20060;-67
2022/07/16 07:13:30;;;;;;;0.68;0.22;;;21.00;97.40;;;;;;5027647;28;20036;-70
2022/07/16 07:15:56;;;;;;;2.20;0.30;;;21.50;97.00;;;;;;5026770;28;20061;-71
2022/07/16 07:18:22;;;;;;;5.75;0.60;;;22.10;96.50;;;;;;5035025;28;20095;-70
2022/07/16 07:20:48;;;;;;;4.72;0.60;;;22.90;95.40;;;;;;5028977;28;20038;-68
2022/07/16 07:23:13;;;;;;;2.08;0.38;;;23.20;94.20;;;;;;5026101;28;20502;-71
2022/07/16 07:25:39;;;;;;;0.93;0.17;;;23.60;94.60;;;;;;5031803;28;20042;-70
2022/07/16 07:28:04;;;;;;;1.45;0.22;;;23.60;93.60;;;;;;5027671;28;20033;-71
2022/07/16 07:30:30;;;;;;;2.03;0.38;;;24.10;94.50;;;;;;5027001;28;20486;-66
2022/07/16 07:32:56;;;;;;;4.10;0.55;;;24.30;92.50;;;;;;5027012;28;20050;-68
2022/07/16 07:35:22;;;;;;;3.33;0.32;;;24.70;91.40;;;;;;5026175;28;20053;-72
2022/07/16 07:37:48;;;;;;;1.15;0.40;;;25.30;91.00;;;;;;5023555;28;20034;-69
2022/07/16 07:40:13;;;;;;;2.03;0.65;;;25.50;91.10;;;;;;5027508;28;20771;-67
2022/07/16 07:42:39;;;;;;;1.65;0.40;;;25.70;90.30;;;;;;5027615;28;20601;-70
2022/07/16 07:45:06;;;;;;;1.95;0.43;;;26.40;90.00;;;;;;5028081;28;20034;-70
2022/07/16 07:47:31;;;;;;;2.80;0.77;;;27.30;89.10;;;;;;5023235;28;20490;-68
2022/07/16 07:49:58;;;;;;;4.63;0.75;;;27.90;84.80;;;;;;5027313;28;20036;-71
2022/07/16 07:52:24;;;;;;;2.45;0.60;;;28.20;83.30;;;;;;5025968;28;20531;-72
2022/07/16 07:54:49;;;;;;;2.40;0.77;;;28.60;80.90;;;;;;5028526;28;20047;-70
2022/07/16 07:57:15;;;;;;;2.75;0.90;;;28.70;80.40;;;;;;5028051;28;20053;-71
2022/07/16 07:59:40;;;;;;;1.38;0.40;;;28.70;77.80;;;;;;5027063;28;20124;-68
2022/07/16 08:02:07;;;;;;;2.92;0.50;;;28.80;77.90;;;;;;5028059;28;20053;-71
2022/07/16 08:04:35;;;;;;;1.83;0.60;;;28.40;76.60;;;;;;5025517;28;20045;-67
2022/07/16 08:07:02;;;;;;;2.88;1.00;;;28.10;76.30;;;;;;5027520;28;20080;-70
2022/07/16 08:09:27;;;;;;;2.80;0.60;;;27.80;77.00;;;;;;5025530;28;20030;-72
2022/07/16 08:11:53;;;;;;;2.75;0.73;;;27.10;77.20;;;;;;5028273;28;20040;-71
2022/07/16 08:14:19;;;;;;;0.82;0.40;;;26.60;77.70;;;;;;5026781;28;20043;-69
2022/07/16 08:16:44;;;;;;;2.50;0.55;;;26.30;79.50;;;;;;5028166;28;20061;-71
2022/07/16 08:19:10;;;;;;;3.55;0.57;;;25.70;81.40;;;;;;5027786;28;20033;-68
2022/07/16 08:21:35;;;;;;;3.33;0.32;;;25.40;79.50;;;;;;5026083;28;20056;-70
2022/07/16 08:26:46;;;;;;;0.88;0.30;;;24.60;80.90;;;;;;5028246;28;20037;-70
2022/07/16 08:29:12;;;;;;;2.05;1.00;;;24.20;82.10;;;;;;5026112;28;20417;-71
2022/07/16 08:31:37;;;;;;;2.17;0.50;;;23.90;84.10;;;;;;5025292;28;20064;-71
2022/07/16 08:34:03;;;;;;;1.95;0.30;;;23.80;84.10;;;;;;5025044;28;20516;-70
2022/07/16 08:36:28;;;;;;;1.23;0.20;;;23.60;85.30;;;;;;5024757;28;20038;-70
2022/07/16 08:38:54;;;;;;;2.17;0.57;;;23.40;84.90;;;;;;5026291;28;20037;-71
2022/07/16 08:41:20;;;;;;;3.03;0.65;;;23.30;87.00;;;;;;5023145;28;20116;-70
2022/07/16 08:43:46;;;;;;;2.97;0.35;;;23.20;86.20;;;;;;5027245;28;20498;-73
2022/07/16 08:46:12;;;;;;;9.02;0.75;;;23.20;86.50;;;;;;5028056;28;20037;-69
2022/07/16 08:48:38;;;;;;;2.13;0.20;;;23.20;85.70;;;;;;5024140;28;20034;-71
2022/07/16 08:51:09;;;;;;;2.55;0.40;;;23.00;85.30;;;;;;5028995;28;20039;-70
2022/07/16 08:53:36;;;;;;;1.67;0.50;;;22.70;86.00;;;;;;5026634;28;20062;-68
2022/07/16 08:56:02;;;;;;;2.65;0.60;;;22.70;86.30;;;;;;5029051;28;20030;-71
2022/07/16 08:58:31;;;;;;;2.15;0.20;;;22.60;86.80;;;;;;5023816;28;20029;-68
2022/07/16 09:00:58;;;;;;;1.37;0.63;;;22.60;87.00;;;;;;5027475;28;20039;-70
2022/07/16 09:03:24;;;;;;;1.52;0.20;;;22.70;88.30;;;;;;5027605;28;20295;-71
2022/07/16 09:05:50;;;;;;;4.80;0.50;;;23.00;86.80;;;;;;5028681;28;20034;-68
2022/07/16 09:08:19;;;;;;;2.67;0.63;;;23.10;85.90;;;;;;5028488;28;20557;-71
2022/07/16 09:10:45;;;;;;;5.10;0.30;;;23.10;84.50;;;;;;5028020;28;20103;-71
2022/07/16 09:13:11;;;;;;;0.70;0.20;;;23.00;85.00;;;;;;5028187;28;20033;-71
2022/07/16 09:15:38;;;;;;;3.30;0.40;;;23.00;85.80;;;;;;5027660;28;20037;-70
2022/07/16 09:18:09;;;;;;;1.92;0.50;;;23.00;85.80;;;;;;5028139;28;20033;-70
2022/07/16 09:20:36;;;;;;;2.88;0.40;;;23.00;84.50;;;;;;5026643;28;20096;-68
2022/07/16 09:23:02;;;;;;;1.05;0.20;;;23.00;85.10;;;;;;5028175;28;20030;-71
2022/07/16 09:25:28;;;;;;;3.00;0.63;;;23.10;85.00;;;;;;5029865;28;20036;-68
2022/07/16 09:27:59;;;;;;;4.90;0.63;;;23.10;84.60;;;;;;5028679;28;20057;-71
2022/07/16 09:30:25;;;;;;;;;;;23.20;83.60;;;;;;5027949;28;20067;-71
2022/07/16 09:32:50;;;;;;;2.50;0.35;;;22.90;82.40;;;;;;5028236;28;19928;-67
2022/07/16 09:35:18;;;;;;;2.75;0.68;;;22.80;83.00;;;;;;5026616;28;20052;-70
2022/07/16 09:37:51;;;;;;;3.38;0.30;;;22.60;83.70;;;;;;5023827;28;20041;-69
2022/07/16 09:40:40;;;;;;;1.38;0.40;;;22.60;86.10;;;;;;5028764;28;20177;-68
2022/07/16 09:43:18;;;;;;;1.90;0.60;;;22.70;84.40;;;;;;5031950;28;20022;-70
2022/07/16 09:46:03;;;;;;;3.22;0.38;;;22.80;83.80;;;;;;5026176;28;20037;-67
2022/07/16 09:48:32;;;;;;;2.08;0.40;;;22.80;84.00;;;;;;5026997;28;20489;-68
2022/07/16 09:51:13;;;;;;;1.30;0.20;;;22.80;85.10;;;;;;5024892;28;20068;-71
2022/07/16 09:53:40;;;;;;;4.55;0.75;;;22.80;83.30;;;;;;5027288;28;20021;-69
2022/07/16 09:56:08;;;;;;;3.53;0.30;;;22.90;84.00;;;;;;5027942;28;20030;-69
2022/07/16 09:58:35;;;;;;;3.22;0.28;;;22.80;81.10;;;;;;5025081;28;20048;-69
2022/07/16 10:01:03;;;;;;;1.85;0.55;;;23.00;83.00;;;;;;5026484;28;20036;-66
2022/07/16 10:03:29;;;;;;;1.13;0.30;;;22.90;82.80;;;;;;5026544;28;20547;-68
2022/07/16 10:05:55;;;;;;;2.85;0.38;;;22.90;82.90;;;;;;5027656;28;20033;-70
2022/07/16 10:08:22;;;;;;;1.50;0.32;;;22.90;83.30;;;;;;5026995;28;20022;-66
2022/07/16 10:10:48;;;;;;;2.85;0.52;;;23.00;84.10;;;;;;5027929;28;20468;-70
2022/07/16 10:13:15;;;;;;;1.23;0.30;;;23.10;83.70;;;;;;5028006;28;20374;-71
2022/07/16 10:15:41;;;;;;;1.17;0.40;;;23.10;83.20;;;;;;5027547;28;20036;-68
2022/07/16 10:18:33;;;;;;;1.23;0.20;;;22.90;82.20;;;;;;5028382;28;20056;-69
2022/07/16 10:21:18;;;;;;;1.63;0.20;;;22.70;83.30;;;;;;5024175;28;20041;-68
2022/07/16 10:23:49;;;;;;;1.40;0.30;;;22.90;82.80;;;;;;5027463;28;20045;-70
2022/07/16 10:26:17;;;;;;;1.80;0.20;;;23.00;82.50;;;;;;5029396;28;20476;-68
2022/07/16 10:28:47;;;;;;;1.25;0.20;;;23.00;83.70;;;;;;5026564;28;20030;-70
2022/07/16 10:31:39;;;;;;;1.83;0.50;;;23.00;80.00;;;;;;5026572;28;20060;-69
2022/07/16 10:34:32;;;;;;;1.80;0.55;;;23.20;81.10;;;;;;5025263;28;20049;-71
2022/07/16 10:36:57;;;;;;;2.25;0.32;;;23.30;81.30;;;;;;5022809;28;20025;-68
2022/07/16 10:39:25;;;;;;;1.35;0.28;;;23.50;81.80;;;;;;5024291;28;20397;-69
2022/07/16 10:41:56;;;;;;;1.77;0.30;;;23.70;80.70;;;;;;5027132;28;20032;-69
2022/07/16 10:44:24;;;;;;;1.95;0.50;;;23.90;80.80;;;;;;5024012;28;20054;-67
2022/07/16 10:46:59;;;;;;;2.83;0.30;;;23.80;79.70;;;;;;5030560;28;20599;-71
2022/07/16 10:49:27;;;;;;;1.83;0.20;;;23.60;80.50;;;;;;5030863;28;20033;-69
2022/07/16 10:52:09;;;;;;;3.03;0.38;;;23.60;81.40;;;;;;5028009;28;20053;-66
2022/07/16 10:54:39;;;;;;;1.83;0.50;;;23.40;81.70;;;;;;5028492;28;20456;-69
2022/07/16 10:57:07;;;;;;;1.38;0.47;;;23.50;81.80;;;;;;5031257;28;20045;-68
2022/07/16 10:59:40;;;;;;;1.90;0.50;;;23.80;81.60;;;;;;5030839;28;20030;-69
2022/07/16 11:02:08;;;;;;;0.75;0.17;;;23.90;80.10;;;;;;5029969;28;20616;-71
2022/07/16 11:04:39;;;;;;;2.50;0.40;;;23.80;79.40;;;;;;5029947;28;20045;-70
2022/07/16 11:07:11;;;;;;;3.75;0.38;;;23.90;80.00;;;;;;5031521;28;20057;-70
2022/07/16 11:09:42;;;;;;;4.13;0.47;;;23.80;81.50;;;;;;5026479;28;20029;-67
2022/07/16 11:12:16;;;;;;;1.73;0.63;;;23.90;79.90;;;;;;5028141;28;20030;-68
2022/07/16 11:14:46;;;;;;;1.73;0.63;;;23.90;80.20;;;;;;5027665;28;20669;-70
2022/07/16 11:17:12;;;;;;;1.70;0.30;;;24.00;78.80;;;;;;5028325;28;20025;-71
2022/07/16 11:19:40;;;;;;;1.55;0.17;;;24.10;78.50;;;;;;5028895;28;20482;-67
2022/07/16 11:22:06;;;;;;;2.85;0.43;;;24.10;79.70;;;;;;5029074;28;20444;-70
2022/07/16 11:24:32;;;;;;;2.50;0.50;;;24.20;78.80;;;;;;5030439;28;20028;-70
2022/07/16 11:26:58;;;;;;;1.52;0.40;;;24.20;81.20;;;;;;5030710;28;20080;-70
2022/07/16 11:29:26;;;;;;;2.80;0.43;;;24.10;80.20;;;;;;5027479;28;20038;-70
2022/07/16 11:31:53;;;;;;;2.15;0.70;;;24.10;79.40;;;;;;5029925;28;20050;-67
2022/07/16 11:34:22;;;;;;;4.63;0.45;;;24.20;79.50;;;;;;5025199;28;20025;-68
2022/07/16 11:36:50;;;;;;;2.03;0.30;;;24.20;80.10;;;;;;5029781;28;20489;-70
2022/07/16 11:39:18;;;;;;;4.18;0.45;;;24.30;81.10;;;;;;5026788;28;20052;-69
2022/07/16 11:41:46;;;;;;;2.10;0.30;;;24.30;79.90;;;;;;5028796;28;20033;-69
2022/07/16 11:44:20;;;;;;;1.38;0.30;;;24.20;77.00;;;;;;5027755;28;20053;-71
2022/07/16 11:46:51;;;;;;;0.77;0.20;;;23.90;78.80;;;;;;5029161;28;20445;-70
2022/07/16 11:49:28;;;;;;;1.65;0.30;;;23.80;79.20;;;;;;5027991;28;20103;-70
2022/07/16 11:51:57;;;;;;;3.25;0.55;;;23.70;79.30;;;;;;5025863;28;20509;-69
2022/07/16 11:54:24;;;;;;;3.78;0.40;;;23.70;80.00;;;;;;5028405;28;20048;-67
2022/07/16 11:56:50;;;;;;;3.42;0.55;;;23.60;79.30;;;;;;5028710;28;20393;-70
2022/07/16 11:59:22;;;;;;;5.32;0.50;;;23.60;80.90;;;;;;5029573;28;20116;-69
2022/07/16 12:02:02;;;;;;;2.20;0.30;;;23.60;79.90;;;;;;5032243;28;20056;-69
2022/07/16 12:04:36;;;;;;;3.15;0.43;;;23.70;80.70;;;;;;5023746;28;20048;-69
2022/07/16 12:07:05;;;;;;;8.52;0.85;;;23.80;80.90;;;;;;5027555;28;20044;-70
2022/07/16 12:09:36;;;;;;;2.85;0.22;;;23.90;80.30;;;;;;5026570;28;20041;-70
2022/07/16 12:12:04;;;;;;;3.28;0.50;;;23.80;78.00;;;;;;5028969;28;20034;-69
2022/07/16 12:14:46;;;;;;;1.40;0.20;;;23.50;79.30;;;;;;5028002;28;20099;-69
2022/07/16 12:17:27;;;;;;;1.85;0.20;;;23.60;78.80;;;;;;5027477;28;20383;-68
2022/07/16 12:20:04;;;;;;;1.50;0.28;;;23.50;79.50;;;;;;5023829;28;20045;-67
2022/07/16 12:22:49;;;;;;;0.70;0.40;;;23.40;79.30;;;;;;5027864;28;20037;-70
2022/07/16 12:25:38;;;;;;;1.70;0.20;;;23.50;79.40;;;;;;5033682;28;20141;-70
2022/07/16 12:28:04;;;;;;;1.25;0.40;;;23.40;76.50;;;;;;5025383;28;20091;-70
2022/07/16 12:30:34;;;;;;;0.88;0.30;;;23.40;78.80;;;;;;5025798;28;20049;-71
2022/07/16 12:33:00;;;;;;;2.55;0.47;;;23.40;78.70;;;;;;5028922;28;20076;-68
2022/07/16 12:35:46;;;;;;;1.48;0.30;;;23.30;78.40;;;;;;5026248;28;20572;-68
2022/07/16 12:38:33;;;;;;;2.25;0.30;;;23.30;79.40;;;;;;5028183;28;20100;-70
2022/07/16 12:40:58;;;;;;;2.22;0.47;;;23.30;79.20;;;;;;5025749;28;20068;-69
2022/07/16 12:43:24;;;;;;;1.80;0.47;;;23.20;80.60;;;;;;5027730;28;20065;-67
2022/07/16 12:45:50;;;;;;;5.03;0.35;;;23.30;80.50;;;;;;5028621;28;20034;-69
2022/07/16 12:48:15;;;;;;;1.65;0.65;;;23.20;78.10;;;;;;5028798;28;20393;-69
2022/07/16 12:50:41;;;;;;;1.35;0.38;;;23.20;79.10;;;;;;5027433;28;20036;-69
2022/07/16 12:53:06;;;;;;;2.08;0.25;;;23.30;79.60;;;;;;5027944;28;20026;-70